createdAt,value
2022-10-08T00:00:23.321Z,38.67
2022-10-08T00:02:50.559Z,34.95
2022-10-08T00:05:17.797Z,29.70
2022-10-08T00:07:45.647Z,30.80
2022-10-08T00:10:12.945Z,25.13
2022-10-08T00:12:40.370Z,31.73
2022-10-08T00:15:07.947Z,28.63
2022-10-08T00:17:35.188Z,26.17
2022-10-08T00:20:02.476Z,28.00
2022-10-08T00:22:29.820Z,30.10
2022-10-08T00:24:57.738Z,24.95
2022-10-08T00:27:25.293Z,30.17
2022-10-08T00:29:52.638Z,26.00
2022-10-08T00:32:20.000Z,29.40
2022-10-08T00:34:47.919Z,29.05
2022-10-08T00:37:15.610Z,35.22
2022-10-08T00:39:43.023Z,27.25
2022-10-08T00:42:12.022Z,30.25
2022-10-08T00:44:52.513Z,26.42
2022-10-08T00:47:22.894Z,27.58
2022-10-08T00:49:51.561Z,29.70
2022-10-08T00:52:19.910Z,28.27
2022-10-08T00:54:49.540Z,34.35
2022-10-08T00:57:16.835Z,26.85
2022-10-08T00:59:44.106Z,29.35
2022-10-08T01:02:13.450Z,31.85
2022-10-08T01:04:42.993Z,27.20
2022-10-08T01:07:10.259Z,27.95
2022-10-08T01:09:48.884Z,26.20
2022-10-08T01:12:34.284Z,25.42
2022-10-08T01:15:06.900Z,30.42
2022-10-08T01:17:48.832Z,30.65
2022-10-08T01:20:34.639Z,28.90
2022-10-08T01:23:10.948Z,31.67
2022-10-08T01:25:48.678Z,31.90
2022-10-08T01:28:21.215Z,27.67
2022-10-08T01:30:56.331Z,24.83
2022-10-08T01:33:29.160Z,24.52
2022-10-08T01:35:58.743Z,27.35
2022-10-08T01:38:28.468Z,27.25
2022-10-08T01:40:59.215Z,27.77
2022-10-08T01:43:28.798Z,27.63
2022-10-08T01:45:59.544Z,28.10
2022-10-08T01:48:29.092Z,25.15
2022-10-08T01:50:59.261Z,26.30
2022-10-08T01:53:28.202Z,27.00
2022-10-08T01:55:56.890Z,27.52
2022-10-08T01:58:31.235Z,24.73
2022-10-08T02:03:25.640Z,25.65
2022-10-08T02:05:54.776Z,23.90
2022-10-08T02:08:23.003Z,28.58
2022-10-08T02:10:51.176Z,29.77
2022-10-08T02:13:18.875Z,30.60
2022-10-08T02:15:58.200Z,25.52
2022-10-08T02:18:38.111Z,24.35
2022-10-08T02:21:09.489Z,28.58
2022-10-08T02:23:37.455Z,28.52
2022-10-08T02:26:05.679Z,29.33
2022-10-08T02:28:36.605Z,25.48
2022-10-08T02:31:06.858Z,27.65
2022-10-08T02:33:37.411Z,24.10
2022-10-08T02:36:07.097Z,26.02
2022-10-08T02:38:36.157Z,28.42
2022-10-08T02:41:04.818Z,27.42
2022-10-08T02:43:33.222Z,32.50
2022-10-08T02:46:02.273Z,26.25
2022-10-08T02:48:34.104Z,26.40
2022-10-08T02:51:06.536Z,24.48
2022-10-08T02:53:35.012Z,23.90
2022-10-08T02:56:02.360Z,24.77
2022-10-08T02:58:29.831Z,25.67
2022-10-08T03:01:15.824Z,28.35
2022-10-08T03:03:46.556Z,28.35
2022-10-08T03:06:14.463Z,22.90
2022-10-08T03:08:43.559Z,27.02
2022-10-08T03:11:11.598Z,25.20
2022-10-08T03:13:40.572Z,22.92
2022-10-08T03:16:09.107Z,21.60
2022-10-08T03:18:38.555Z,20.77
2022-10-08T03:21:08.178Z,22.05
2022-10-08T03:23:35.640Z,23.92
2022-10-08T03:26:02.885Z,22.65
2022-10-08T03:28:30.156Z,21.20
2022-10-08T03:30:57.474Z,20.35
2022-10-08T03:33:24.813Z,25.92
2022-10-08T03:35:52.035Z,21.75
2022-10-08T03:38:19.347Z,22.25
2022-10-08T03:40:54.812Z,18.40
2022-10-08T03:43:22.565Z,19.23
2022-10-08T03:45:53.502Z,19.35
2022-10-08T03:48:21.551Z,22.63
2022-10-08T03:51:09.402Z,23.58
2022-10-08T03:53:37.720Z,20.83
2022-10-08T03:56:06.214Z,20.15
2022-10-08T03:58:33.660Z,18.13
2022-10-08T04:01:05.174Z,20.40
2022-10-08T04:03:32.598Z,17.15
2022-10-08T04:06:00.482Z,20.55
2022-10-08T04:08:27.852Z,18.58
2022-10-08T04:10:55.260Z,16.40
2022-10-08T04:13:22.749Z,15.80
2022-10-08T04:15:50.922Z,16.60
2022-10-08T04:18:18.584Z,17.63
2022-10-08T04:20:45.824Z,16.45
2022-10-08T04:23:13.264Z,16.02
2022-10-08T04:25:49.066Z,15.57
2022-10-08T04:28:16.398Z,16.13
2022-10-08T04:30:43.736Z,16.42
2022-10-08T04:33:10.959Z,16.95
2022-10-08T04:35:38.809Z,16.60
2022-10-08T04:38:06.075Z,16.02
2022-10-08T04:40:33.333Z,14.88
2022-10-08T04:43:00.537Z,14.63
2022-10-08T04:45:27.761Z,14.88
2022-10-08T04:47:55.008Z,14.82
2022-10-08T04:50:22.261Z,14.98
2022-10-08T04:52:49.757Z,18.27
2022-10-08T04:55:17.195Z,15.15
2022-10-08T04:57:44.484Z,13.68
2022-10-08T05:00:18.153Z,18.45
2022-10-08T05:02:46.851Z,19.08
2022-10-08T05:05:15.567Z,16.52
2022-10-08T05:07:42.889Z,16.08
2022-10-08T05:10:10.380Z,15.57
2022-10-08T05:12:37.629Z,20.67
2022-10-08T05:15:05.018Z,17.15
2022-10-08T05:17:32.262Z,18.15
2022-10-08T05:19:59.463Z,18.15
2022-10-08T05:22:26.756Z,17.33
2022-10-08T05:24:54.004Z,17.33
2022-10-08T05:27:21.376Z,16.00
2022-10-08T05:29:48.598Z,15.45
2022-10-08T05:32:15.851Z,17.90
2022-10-08T05:34:43.063Z,19.00
2022-10-08T05:37:10.299Z,14.40
2022-10-08T05:39:37.496Z,14.82
2022-10-08T05:42:04.843Z,14.50
2022-10-08T05:44:36.093Z,15.75
2022-10-08T05:47:04.839Z,14.55
2022-10-08T05:49:32.168Z,12.95
2022-10-08T05:51:59.420Z,11.93
2022-10-08T05:54:26.636Z,19.23
2022-10-08T05:56:54.101Z,13.90
2022-10-08T05:59:23.028Z,15.90
2022-10-08T06:01:50.982Z,17.30
2022-10-08T06:04:18.766Z,22.70
2022-10-08T06:06:46.453Z,15.93
2022-10-08T06:09:14.932Z,18.33
2022-10-08T06:11:42.656Z,15.93
2022-10-08T06:14:11.449Z,23.67
2022-10-08T06:16:39.158Z,14.50
2022-10-08T06:19:07.150Z,16.33
2022-10-08T06:21:35.175Z,18.60
2022-10-08T06:24:03.782Z,17.05
2022-10-08T06:26:35.744Z,14.32
2022-10-08T06:29:05.773Z,16.05
2022-10-08T06:31:33.669Z,15.48
2022-10-08T06:34:02.576Z,18.42
2022-10-08T06:36:29.822Z,17.75
2022-10-08T06:38:58.332Z,14.68
2022-10-08T06:41:26.489Z,14.88
2022-10-08T06:43:54.404Z,14.35
2022-10-08T06:46:21.718Z,18.30
2022-10-08T06:48:49.402Z,22.10
2022-10-08T06:51:17.674Z,14.48
2022-10-08T06:53:45.226Z,15.55
2022-10-08T06:56:14.887Z,15.82
2022-10-08T06:58:44.868Z,13.55
2022-10-08T07:01:14.072Z,16.40
2022-10-08T07:03:41.425Z,16.67
2022-10-08T07:06:09.987Z,29.30
2022-10-08T07:08:37.734Z,17.67
2022-10-08T07:11:09.915Z,22.23
2022-10-08T07:13:37.580Z,23.23
2022-10-08T07:16:08.969Z,17.52
2022-10-08T07:18:37.194Z,24.38
2022-10-08T07:21:04.942Z,18.25
2022-10-08T07:23:32.287Z,21.58
2022-10-08T07:26:00.895Z,19.08
2022-10-08T07:28:29.374Z,16.08
2022-10-08T07:30:56.662Z,18.48
2022-10-08T07:33:23.963Z,19.95
2022-10-08T07:35:51.182Z,20.23
2022-10-08T07:38:18.721Z,20.90
2022-10-08T07:40:48.625Z,17.38
2022-10-08T07:43:19.661Z,20.52
2022-10-08T07:45:47.419Z,16.52
2022-10-08T07:48:16.487Z,18.67
2022-10-08T07:50:43.753Z,19.67
2022-10-08T07:53:10.988Z,18.48
2022-10-08T07:55:38.177Z,17.98
2022-10-08T07:58:06.574Z,18.48
2022-10-08T08:00:33.874Z,20.13
2022-10-08T08:03:01.162Z,21.98
2022-10-08T08:05:28.394Z,25.90
2022-10-08T08:07:55.675Z,22.00
2022-10-08T08:10:22.862Z,25.23
2022-10-08T08:12:50.291Z,21.05
2022-10-08T08:15:17.782Z,25.15
2022-10-08T08:17:45.023Z,25.60
2022-10-08T08:20:12.233Z,24.40
2022-10-08T08:22:39.481Z,19.38
2022-10-08T08:25:06.932Z,23.23
2022-10-08T08:27:34.227Z,56.45
2022-10-08T08:30:01.462Z,64.57
2022-10-08T08:32:28.888Z,32.10
2022-10-08T08:34:56.138Z,35.30
2022-10-08T08:37:23.509Z,30.73
2022-10-08T08:39:51.147Z,34.28
2022-10-08T08:42:41.674Z,27.95
2022-10-08T08:45:45.537Z,39.38
2022-10-08T08:48:13.470Z,33.13
2022-10-08T08:50:46.650Z,49.72
2022-10-08T08:53:16.003Z,35.35
2022-10-08T08:55:45.242Z,34.33
2022-10-08T08:58:26.863Z,27.55
2022-10-08T09:00:58.595Z,30.65
2022-10-08T09:03:41.129Z,25.25
2022-10-08T09:06:10.734Z,28.25
2022-10-08T09:08:56.953Z,32.03
2022-10-08T09:11:24.643Z,29.25
2022-10-08T09:14:18.578Z,27.60
2022-10-08T09:16:45.850Z,26.60
2022-10-08T09:19:13.219Z,29.17
2022-10-08T09:21:40.434Z,34.50
2022-10-08T09:24:07.684Z,33.80
2022-10-08T09:26:35.474Z,31.90
2022-10-08T09:29:04.753Z,32.63
2022-10-08T09:31:41.363Z,31.55
2022-10-08T09:34:15.595Z,31.60
2022-10-08T09:36:48.874Z,29.92
2022-10-08T09:39:29.241Z,31.38
2022-10-08T09:42:13.346Z,32.38
2022-10-08T09:44:43.714Z,23.52
2022-10-08T09:47:24.598Z,23.80
2022-10-08T09:50:03.929Z,25.17
2022-10-08T09:52:31.507Z,26.20
2022-10-08T09:54:58.739Z,25.05
2022-10-08T09:57:26.117Z,25.70
2022-10-08T10:00:00.787Z,24.00
2022-10-08T10:02:33.038Z,29.67
2022-10-08T10:05:01.255Z,34.40
2022-10-08T10:07:45.505Z,28.48
2022-10-08T10:10:15.902Z,25.00
2022-10-08T10:12:45.799Z,22.20
2022-10-08T10:15:18.957Z,22.90
2022-10-08T10:17:54.194Z,26.95
2022-10-08T10:20:24.579Z,27.50
2022-10-08T10:22:51.769Z,30.35
2022-10-08T10:25:25.482Z,25.50
2022-10-08T10:27:54.660Z,22.85
2022-10-08T10:30:23.468Z,29.58
2022-10-08T10:32:55.219Z,20.08
2022-10-08T10:35:22.446Z,22.88
2022-10-08T10:38:07.543Z,22.50
2022-10-08T10:40:42.497Z,27.48
2022-10-08T10:43:24.769Z,22.35
2022-10-08T10:45:54.775Z,33.33
2022-10-08T10:48:22.013Z,33.72
2022-10-08T10:51:11.042Z,37.40
2022-10-08T10:53:44.665Z,77.40
2022-10-08T10:56:22.448Z,33.53
2022-10-08T10:59:08.876Z,28.75
2022-10-08T11:01:45.347Z,22.75
2022-10-08T11:04:15.557Z,32.85
2022-10-08T11:06:51.992Z,21.85
2022-10-08T11:09:32.207Z,26.80
2022-10-08T11:12:19.973Z,32.20
2022-10-08T11:15:10.666Z,25.63
2022-10-08T11:17:44.339Z,22.27
2022-10-08T11:20:27.046Z,27.15
2022-10-08T11:23:02.809Z,26.20
2022-10-08T11:25:44.853Z,43.00
2022-10-08T11:28:20.539Z,23.95
2022-10-08T11:30:56.702Z,25.70
2022-10-08T11:33:24.617Z,25.58
2022-10-08T11:35:54.875Z,27.33
2022-10-08T11:38:28.225Z,20.60
2022-10-08T11:41:19.945Z,26.40
2022-10-08T11:43:55.383Z,29.60
2022-10-08T11:46:29.043Z,25.95
2022-10-08T11:48:57.785Z,21.65
2022-10-08T11:51:25.445Z,28.27
2022-10-08T11:54:09.956Z,28.20
2022-10-08T11:56:38.888Z,21.77
2022-10-08T11:59:26.826Z,21.65
2022-10-08T12:01:55.498Z,19.75
2022-10-08T12:04:34.859Z,32.25
2022-10-08T12:07:04.034Z,40.58
2022-10-08T12:09:51.464Z,31.30
2022-10-08T12:12:18.882Z,24.15
2022-10-08T12:14:47.391Z,21.42
2022-10-08T12:17:17.524Z,23.25
2022-10-08T12:20:03.140Z,23.42
2022-10-08T12:22:30.454Z,18.10
2022-10-08T12:24:58.872Z,24.13
2022-10-08T12:27:27.812Z,27.40
2022-10-08T12:30:14.424Z,39.17
2022-10-08T12:32:44.912Z,37.47
2022-10-08T12:35:21.534Z,26.63
2022-10-08T12:37:49.209Z,23.77
2022-10-08T12:40:31.670Z,24.50
2022-10-08T12:43:28.394Z,21.77
2022-10-08T12:45:58.279Z,29.27
2022-10-08T12:48:45.778Z,22.35
2022-10-08T12:51:16.196Z,21.40
2022-10-08T12:53:44.793Z,25.13
2022-10-08T12:56:15.771Z,19.23
2022-10-08T12:58:45.041Z,18.15
2022-10-08T13:01:14.215Z,18.67
2022-10-08T13:03:41.628Z,20.95
2022-10-08T13:06:29.327Z,28.25
2022-10-08T13:09:00.436Z,18.88
2022-10-08T13:11:28.336Z,21.15
2022-10-08T13:13:55.539Z,43.80
2022-10-08T13:16:24.579Z,27.88
2022-10-08T13:18:53.779Z,29.70
2022-10-08T13:21:34.367Z,19.98
2022-10-08T13:24:03.230Z,20.60
2022-10-08T13:26:42.723Z,16.30
2022-10-08T13:29:22.449Z,18.23
2022-10-08T13:32:05.034Z,19.95
2022-10-08T13:34:35.026Z,17.92
2022-10-08T13:37:03.815Z,18.00
2022-10-08T13:39:36.737Z,14.32
2022-10-08T13:42:05.829Z,25.42
2022-10-08T13:44:33.831Z,14.77
2022-10-08T13:47:03.888Z,26.85
2022-10-08T13:49:33.320Z,18.05
2022-10-08T13:52:02.262Z,24.00
2022-10-08T13:54:31.750Z,15.15
2022-10-08T13:56:59.148Z,16.30
2022-10-08T13:59:30.425Z,12.52
2022-10-08T14:01:58.229Z,19.05
2022-10-08T14:04:25.479Z,18.92
2022-10-08T14:06:54.377Z,15.43
2022-10-08T14:09:25.870Z,19.08
2022-10-08T14:11:56.521Z,12.80
2022-10-08T14:14:24.696Z,22.00
2022-10-08T14:16:52.547Z,11.10
2022-10-08T14:19:21.314Z,24.27
2022-10-08T14:21:55.186Z,13.80
2022-10-08T14:24:22.418Z,13.63
2022-10-08T14:26:50.035Z,9.98
2022-10-08T14:29:17.282Z,10.27
2022-10-08T14:31:44.621Z,9.88
2022-10-08T14:34:11.847Z,8.60
2022-10-08T14:36:41.034Z,17.80
2022-10-08T14:39:08.291Z,12.32
2022-10-08T14:41:35.617Z,14.63
2022-10-08T14:44:03.048Z,10.02
2022-10-08T14:46:30.383Z,12.70
2022-10-08T14:48:57.638Z,12.60
2022-10-08T14:51:24.844Z,17.40
2022-10-08T14:53:53.078Z,8.32
2022-10-08T14:56:20.681Z,11.75
2022-10-08T14:58:47.999Z,6.53
2022-10-08T15:01:15.261Z,7.90
2022-10-08T15:03:45.736Z,9.07
2022-10-08T15:06:13.091Z,9.30
2022-10-08T15:08:40.517Z,10.10
2022-10-08T15:11:07.792Z,12.15
2022-10-08T15:13:35.103Z,16.73
2022-10-08T15:16:02.383Z,9.05
2022-10-08T15:18:32.835Z,17.98
2022-10-08T15:21:00.811Z,6.20
2022-10-08T15:23:28.273Z,5.72
2022-10-08T15:25:56.266Z,10.57
2022-10-08T15:28:23.630Z,8.70
2022-10-08T15:30:51.031Z,9.43
2022-10-08T15:33:18.231Z,9.57
2022-10-08T15:35:45.466Z,12.20
2022-10-08T15:38:12.673Z,12.60
2022-10-08T15:40:39.903Z,7.20
2022-10-08T15:43:07.123Z,12.48
2022-10-08T15:45:42.073Z,14.10
2022-10-08T15:48:11.760Z,8.77
2022-10-08T15:50:42.248Z,8.90
2022-10-08T15:53:09.508Z,9.70
2022-10-08T15:55:36.747Z,6.82
2022-10-08T15:58:03.960Z,6.97
2022-10-08T16:00:34.636Z,8.10
2022-10-08T16:03:05.339Z,6.50
2022-10-08T16:05:32.663Z,5.85
2022-10-08T16:07:59.865Z,8.98
2022-10-08T16:10:27.444Z,6.47
2022-10-08T16:12:54.878Z,4.88
2022-10-08T16:15:22.111Z,3.78
2022-10-08T16:17:49.320Z,9.55
2022-10-08T16:20:16.624Z,6.55
2022-10-08T16:22:43.885Z,6.95
2022-10-08T16:25:11.242Z,4.75
2022-10-08T16:27:38.472Z,5.75
2022-10-08T16:30:05.941Z,9.40
2022-10-08T16:32:33.160Z,7.00
2022-10-08T16:35:00.403Z,8.10
2022-10-08T16:37:27.651Z,6.78
2022-10-08T16:39:56.908Z,7.93
2022-10-08T16:42:25.769Z,6.25
2022-10-08T16:44:53.010Z,12.75
2022-10-08T16:47:20.245Z,5.45
2022-10-08T16:49:47.517Z,12.18
2022-10-08T16:52:14.755Z,7.80
2022-10-08T16:54:42.022Z,10.40
2022-10-08T16:57:09.351Z,7.43
2022-10-08T16:59:36.642Z,6.55
2022-10-08T17:02:03.960Z,9.13
2022-10-08T17:04:38.881Z,7.80
2022-10-08T17:07:07.507Z,8.25
2022-10-08T17:09:35.611Z,6.85
2022-10-08T17:12:02.945Z,8.75
2022-10-08T17:14:33.067Z,5.82
2022-10-08T17:17:00.431Z,8.93
2022-10-08T17:19:27.747Z,11.90
2022-10-08T17:21:54.988Z,8.68
2022-10-08T17:24:22.567Z,9.85
2022-10-08T17:26:49.923Z,10.13
2022-10-08T17:29:17.284Z,12.18
2022-10-08T17:31:44.632Z,6.05
2022-10-08T17:34:12.227Z,6.32
2022-10-08T17:36:41.072Z,8.82
2022-10-08T17:39:09.232Z,8.38
2022-10-08T17:41:37.794Z,10.40
2022-10-08T17:44:06.871Z,4.28
2022-10-08T17:46:36.425Z,11.43
2022-10-08T17:49:04.459Z,10.27
2022-10-08T17:51:31.863Z,9.88
2022-10-08T17:54:02.767Z,8.15
2022-10-08T17:56:30.836Z,9.20
2022-10-08T17:58:58.356Z,9.00
2022-10-08T18:01:27.154Z,15.23
2022-10-08T18:03:58.645Z,8.18
2022-10-08T18:06:26.353Z,7.13
2022-10-08T18:08:57.565Z,7.20
2022-10-08T18:11:25.308Z,6.88
2022-10-08T18:13:53.372Z,7.43
2022-10-08T18:16:21.268Z,5.45
2022-10-08T18:18:48.842Z,6.32
2022-10-08T18:21:17.222Z,9.70
2022-10-08T18:23:46.587Z,7.30
2022-10-08T18:26:27.161Z,12.85
2022-10-08T18:28:55.425Z,12.50
2022-10-08T18:31:23.760Z,8.32
2022-10-08T18:33:51.762Z,6.47
2022-10-08T18:36:26.156Z,8.20
2022-10-08T18:41:25.248Z,9.65
2022-10-08T18:43:52.500Z,12.02
2022-10-08T18:46:21.025Z,14.80
2022-10-08T18:48:48.630Z,19.40
2022-10-08T18:51:23.028Z,21.35
2022-10-08T18:53:51.849Z,22.50
2022-10-08T18:56:25.357Z,20.30
2022-10-08T18:58:56.502Z,21.67
2022-10-08T19:01:25.006Z,20.63
2022-10-08T19:03:53.471Z,25.80
2022-10-08T19:06:21.982Z,17.92
2022-10-08T19:08:49.359Z,21.77
2022-10-08T19:11:21.058Z,22.85
2022-10-08T19:13:48.384Z,18.60
2022-10-08T19:16:16.584Z,20.33
2022-10-08T19:18:44.652Z,17.73
2022-10-08T19:21:13.087Z,20.58
2022-10-08T19:23:40.699Z,17.05
2022-10-08T19:26:08.347Z,14.80
2022-10-08T19:28:37.223Z,14.02
2022-10-08T19:31:17.146Z,19.17
2022-10-08T19:33:48.581Z,18.50
2022-10-08T19:36:15.975Z,22.08
2022-10-08T19:38:43.883Z,17.17
2022-10-08T19:41:11.817Z,15.68
2022-10-08T19:43:39.358Z,16.02
2022-10-08T19:46:07.003Z,16.40
2022-10-08T19:48:34.317Z,22.10
2022-10-08T19:51:05.576Z,17.02
2022-10-08T19:53:33.330Z,12.98
2022-10-08T19:56:01.793Z,16.40
2022-10-08T19:58:29.268Z,19.20
2022-10-08T20:01:00.508Z,14.25
2022-10-08T20:03:27.925Z,13.30
2022-10-08T20:05:55.706Z,12.02
2022-10-08T20:08:23.410Z,22.70
2022-10-08T20:10:50.886Z,21.45
2022-10-08T20:13:18.387Z,21.10
2022-10-08T20:15:50.378Z,23.58
2022-10-08T20:18:18.700Z,21.77
2022-10-08T20:20:46.147Z,21.30
2022-10-08T20:23:13.504Z,20.05
2022-10-08T20:25:42.528Z,21.77
2022-10-08T20:28:09.887Z,18.83
2022-10-08T20:30:37.381Z,15.35
2022-10-08T20:33:04.739Z,18.70
2022-10-08T20:35:32.587Z,16.95
2022-10-08T20:37:59.908Z,15.48
2022-10-08T20:40:27.438Z,12.27
2022-10-08T20:42:54.800Z,9.85
2022-10-08T20:45:22.066Z,13.05
2022-10-08T20:47:49.621Z,15.68
2022-10-08T20:50:17.008Z,18.25
2022-10-08T20:52:45.141Z,17.52
2022-10-08T20:55:12.677Z,16.92
2022-10-08T20:57:40.091Z,14.32
2022-10-08T21:00:07.810Z,16.30
2022-10-08T21:02:35.306Z,17.25
2022-10-08T21:05:02.646Z,15.13
2022-10-08T21:07:30.023Z,13.18
2022-10-08T21:09:57.297Z,11.75
2022-10-08T21:12:24.635Z,13.27
2022-10-08T21:14:52.002Z,17.45
2022-10-08T21:17:19.306Z,14.27
2022-10-08T21:19:46.496Z,19.70
2022-10-08T21:22:14.146Z,11.70
2022-10-08T21:24:41.409Z,10.82
2022-10-08T21:27:08.814Z,10.85
2022-10-08T21:29:37.894Z,19.25
2022-10-08T21:32:05.518Z,16.48
2022-10-08T21:34:32.885Z,10.63
2022-10-08T21:37:00.552Z,9.32
2022-10-08T21:39:28.100Z,11.57
2022-10-08T21:41:55.647Z,12.18
2022-10-08T21:44:23.220Z,20.63
2022-10-08T21:46:50.942Z,10.65
2022-10-08T21:49:20.905Z,15.80
2022-10-08T21:51:48.607Z,10.50
2022-10-08T21:54:17.877Z,18.92
2022-10-08T21:56:45.367Z,15.95
2022-10-08T21:59:14.699Z,11.73
2022-10-08T22:01:43.607Z,11.15
2022-10-08T22:04:12.470Z,10.82
2022-10-08T22:06:42.030Z,14.43
2022-10-08T22:09:10.956Z,12.38
2022-10-08T22:11:39.081Z,10.73
2022-10-08T22:14:06.942Z,13.95
2022-10-08T22:16:36.339Z,11.38
2022-10-08T22:19:06.442Z,9.57
2022-10-08T22:21:34.663Z,10.35
2022-10-08T22:24:02.134Z,10.77
2022-10-08T22:26:31.017Z,13.27
2022-10-08T22:28:58.390Z,13.32
2022-10-08T22:31:27.365Z,9.27
2022-10-08T22:33:55.039Z,13.30
2022-10-08T22:36:23.959Z,7.80
2022-10-08T22:38:51.610Z,9.77
2022-10-08T22:41:20.416Z,7.18
2022-10-08T22:43:47.861Z,8.95
2022-10-08T22:46:17.416Z,9.73
2022-10-08T22:48:45.652Z,10.05
2022-10-08T22:51:18.033Z,9.25
2022-10-08T22:53:45.848Z,9.25
2022-10-08T22:56:16.392Z,8.55
2022-10-08T22:58:43.780Z,7.45
2022-10-08T23:01:12.657Z,7.97
2022-10-08T23:03:40.415Z,10.32
2022-10-08T23:06:09.833Z,10.80
2022-10-08T23:08:37.397Z,7.38
2022-10-08T23:11:04.878Z,8.10
2022-10-08T23:13:32.982Z,9.05
2022-10-08T23:16:02.905Z,5.60
2022-10-08T23:18:34.665Z,9.88
2022-10-08T23:21:03.232Z,6.65
2022-10-08T23:23:30.934Z,9.55
2022-10-08T23:25:59.652Z,9.82
2022-10-08T23:28:27.820Z,9.77
2022-10-08T23:30:55.240Z,7.45
2022-10-08T23:33:23.118Z,7.22
2022-10-08T23:35:56.747Z,7.82
2022-10-08T23:38:24.506Z,6.45
2022-10-08T23:40:52.326Z,6.40
2022-10-08T23:43:19.804Z,10.27
2022-10-08T23:45:47.304Z,11.13
2022-10-08T23:48:15.009Z,8.40
2022-10-08T23:50:43.731Z,9.05
2022-10-08T23:53:11.658Z,7.82
2022-10-08T23:55:39.338Z,6.45
2022-10-08T23:58:06.762Z,7.97
